Time;durP1;ratioP1;P1;durP2;ratioP2;P2;SDS_P1;SDS_P2;PMS_P1;PMS_P2;Temp;Humidity;BMP_temperature;BMP_pressure;BME280_temperature;BME280_humidity;BME280_pressure;Samples;Min_cycle;Max_cycle;Signal;HPM_P1;HPM_P2
2022/10/12 00:01:12;;;;;;;;;;;;;;;;;;5075417;28;19993;-84
2022/10/12 00:03:37;;;;;;;;;;;;;;;;;;5107846;28;19955;-83
2022/10/12 00:06:02;;;;;;;;;;;;;;;;;;5071541;28;19963;-86
2022/10/12 00:08:29;;;;;;;;;;;;;;;;;;5092480;28;19912;-87
2022/10/12 00:10:54;;;;;;;;;;;;;;;;;;5098686;28;19951;-86
2022/10/12 00:13:20;;;;;;;;;;;;;;;;;;5054862;28;20460;-88
2022/10/12 00:15:45;;;;;;;;;;;;;;;;;;5050064;28;19919;-87
2022/10/12 00:18:10;;;;;;;;;;;;;;;;;;5063728;28;20337;-86
2022/10/12 00:20:36;;;;;;;;;;;;;;;;;;5065962;28;19985;-85
2022/10/12 00:23:01;;;;;;;;;;;;;;;;;;5057155;28;19984;-85
2022/10/12 00:25:27;;;;;;;;;;;;;;;;;;5093885;28;19912;-87
2022/10/12 00:27:52;;;;;;;;;;;;;;;;;;5077328;28;19922;-86
2022/10/12 00:30:18;;;;;;;;;;;;;;;;;;5052822;28;20359;-82
2022/10/12 00:32:43;;;;;;;;;;;;;;;;;;5067478;28;19936;-85
2022/10/12 00:35:08;;;;;;;;;;;;;;;;;;5061270;28;19901;-83
2022/10/12 00:37:34;;;;;;;;;;;;;;;;;;5077369;28;19919;-85
2022/10/12 00:39:59;;;;;;;;;;;;;;;;;;5077905;28;19905;-85
2022/10/12 00:42:25;;;;;;;;;;;;;;;;;;5077030;28;19928;-86
2022/10/12 00:44:50;;;;;;;;;;;;;;;;;;5044423;28;19980;-84
2022/10/12 00:47:16;;;;;;;;;;;;;;;;;;5059206;28;19991;-84
2022/10/12 00:49:41;;;;;;;;;;;;;;;;;;5059830;28;19921;-84
2022/10/12 00:52:07;;;;;;;;;;;;;;;;;;5082523;28;20367;-84
2022/10/12 00:54:32;;;;;;;;;;;;;;;;;;5101440;28;19916;-83
2022/10/12 00:56:58;;;;;;;;;;;;;;;;;;5101214;28;19938;-85
2022/10/12 00:59:23;;;;;;;;;;;;;;;;;;5118767;28;19902;-86
2022/10/12 01:01:48;;;;;;;;;;;;;;;;;;5101941;28;19908;-85
2022/10/12 01:04:14;;;;;;;;;;;;;;;;;;5119618;28;19938;-83
2022/10/12 01:06:39;;;;;;;;;;;;;;;;;;5158795;22;20406;-88
2022/10/12 01:09:04;;;;;;;;;;;;;;;;;;5118910;27;19949;-88
2022/10/12 01:11:30;;;;;;;;;;;;;;;;;;5122752;27;19918;-87
2022/10/12 01:13:55;;;;;;;;;;;;;;;;;;5097869;27;19915;-88
2022/10/12 01:16:20;;;;;;;;;;;;;;;;;;5125602;27;19918;-88
2022/10/12 01:18:46;;;;;;;;;;;;;;;;;;5146274;27;19956;-88
2022/10/12 01:21:11;;;;;;;;;;;;;;;;;;5128983;27;19919;-88
2022/10/12 01:23:36;;;;;;;;;;;;;;;;;;5109666;27;20391;-88
2022/10/12 01:26:02;;;;;;;;;;;;;;;;;;5144242;27;19912;-88
2022/10/12 01:28:27;;;;;;;;;;;;;;;;;;5117315;28;19912;-87
2022/10/12 01:30:52;;;;;;;;;;;;;;;;;;5106542;27;19962;-86
2022/10/12 01:33:18;;;;;;;;;;;;;;;;;;5136868;28;20287;-88
2022/10/12 01:35:43;;;;;;;;;;;;;;;;;;5140342;27;20015;-88
2022/10/12 01:38:09;;;;;;;;;;;;;;;;;;5132340;27;20099;-88
2022/10/12 01:40:34;;;;;;;;;;;;;;;;;;5146133;27;19910;-87
2022/10/12 01:42:59;;;;;;;;;;;;;;;;;;5102986;27;19930;-87
2022/10/12 01:45:25;;;;;;;;;;;;;;;;;;5143274;27;19914;-86
2022/10/12 01:47:51;;;;;;;;;;;;;;;;;;5133937;27;20346;-87
2022/10/12 01:50:17;;;;;;;;;;;;;;;;;;5142977;27;19913;-87
2022/10/12 01:52:42;;;;;;;;;;;;;;;;;;5116512;28;19915;-87
2022/10/12 01:55:08;;;;;;;;;;;;;;;;;;5143160;27;20434;-88
2022/10/12 01:57:33;;;;;;;;;;;;;;;;;;5127277;28;20346;-87
2022/10/12 01:59:58;;;;;;;;;;;;;;;;;;5135214;27;19912;-89
2022/10/12 02:02:24;;;;;;;;;;;;;;;;;;5121028;27;19922;-87
2022/10/12 02:04:50;;;;;;;;;;;;;;;;;;5149847;27;20392;-89
2022/10/12 02:07:15;;;;;;;;;;;;;;;;;;5149319;27;19918;-88
2022/10/12 02:09:40;;;;;;;;;;;;;;;;;;5158324;27;20401;-88
2022/10/12 02:12:06;;;;;;;;;;;;;;;;;;5110256;27;19955;-88
2022/10/12 02:14:31;;;;;;;;;;;;;;;;;;5153836;27;19918;-87
2022/10/12 02:16:56;;;;;;;;;;;;;;;;;;5145695;27;19923;-86
2022/10/12 02:19:21;;;;;;;;;;;;;;;;;;5146896;27;19907;-87
2022/10/12 02:21:47;;;;;;;;;;;;;;;;;;5153521;27;19965;-86
2022/10/12 02:24:12;;;;;;;;;;;;;;;;;;5122761;27;19962;-88
2022/10/12 02:26:38;;;;;;;;;;;;;;;;;;5128628;27;19919;-88
2022/10/12 02:29:03;;;;;;;;;;;;;;;;;;5134689;27;19915;-87
2022/10/12 02:31:28;;;;;;;;;;;;;;;;;;5144739;27;19911;-87
2022/10/12 02:33:54;;;;;;;;;;;;;;;;;;5102417;28;20453;-87
2022/10/12 02:36:19;;;;;;;;;;;;;;;;;;5139240;27;20023;-89
2022/10/12 02:38:45;;;;;;;;;;;;;;;;;;5151480;27;19956;-90
2022/10/12 02:41:10;;;;;;;;;;;;;;;;;;5147252;27;20028;-89
2022/10/12 02:43:35;;;;;;;;;;;;;;;;;;5142954;27;19942;-89
2022/10/12 02:46:01;;;;;;;;;;;;;;;;;;5153301;27;19911;-89
2022/10/12 02:48:26;;;;;;;;;;;;;;;;;;5134923;27;19959;-89
2022/10/12 02:50:51;;;;;;;;;;;;;;;;;;5143844;27;19929;-87
2022/10/12 02:53:17;;;;;;;;;;;;;;;;;;5145330;27;20002;-88
2022/10/12 02:55:42;;;;;;;;;;;;;;;;;;5134923;27;19911;-88
2022/10/12 02:58:08;;;;;;;;;;;;;;;;;;5119369;27;19912;-88
2022/10/12 03:00:33;;;;;;;;;;;;;;;;;;5145993;27;19912;-87
2022/10/12 03:02:58;;;;;;;;;;;;;;;;;;5096650;27;19922;-90
2022/10/12 03:05:24;;;;;;;;;;;;;;;;;;5143948;27;19968;-88
2022/10/12 03:07:49;;;;;;;;;;;;;;;;;;5118794;27;20298;-89
2022/10/12 03:10:14;;;;;;;;;;;;;;;;;;5135439;27;20369;-89
2022/10/12 03:12:40;;;;;;;;;;;;;;;;;;5150102;27;20270;-88
2022/10/12 03:15:05;;;;;;;;;;;;;;;;;;5144275;27;20006;-87
2022/10/12 03:17:30;;;;;;;;;;;;;;;;;;5129688;27;19919;-88
2022/10/12 03:19:56;;;;;;;;;;;;;;;;;;5148692;27;19915;-91
2022/10/12 03:22:21;;;;;;;;;;;;;;;;;;5120783;27;19919;-91
2022/10/12 03:24:46;;;;;;;;;;;;;;;;;;5141549;27;19934;-91
2022/10/12 03:27:12;;;;;;;;;;;;;;;;;;5135436;27;19917;-87
2022/10/12 03:29:37;;;;;;;;;;;;;;;;;;5127019;27;19955;-86
2022/10/12 03:32:03;;;;;;;;;;;;;;;;;;5148186;27;20392;-86
2022/10/12 03:34:28;;;;;;;;;;;;;;;;;;5129658;27;20427;-87
2022/10/12 03:36:53;;;;;;;;;;;;;;;;;;5122602;27;19975;-90
2022/10/12 03:39:19;;;;;;;;;;;;;;;;;;5146981;27;19917;-88
2022/10/12 03:41:44;;;;;;;;;;;;;;;;;;5127699;27;20385;-87
2022/10/12 03:44:10;;;;;;;;;;;;;;;;;;5156311;27;19919;-84
2022/10/12 03:46:35;;;;;;;;;;;;;;;;;;5120848;28;19911;-84
2022/10/12 03:49:00;;;;;;;;;;;;;;;;;;5139665;27;19918;-88
2022/10/12 03:51:26;;;;;;;;;;;;;;;;;;5115399;27;20003;-89
2022/10/12 03:53:51;;;;;;;;;;;;;;;;;;5145558;27;19915;-88
2022/10/12 03:56:17;;;;;;;;;;;;;;;;;;5120665;27;19975;-86
2022/10/12 03:58:42;;;;;;;;;;;;;;;;;;5125383;27;19969;-88
2022/10/12 04:01:07;;;;;;;;;;;;;;;;;;5115060;27;19911;-86
2022/10/12 04:03:33;;;;;;;;;;;;;;;;;;5092903;28;20034;-88
2022/10/12 04:05:58;;;;;;;;;;;;;;;;;;5130228;27;20303;-89
2022/10/12 04:08:25;;;;;;;;;;;;;;;;;;5086874;27;20373;-88
2022/10/12 04:10:50;;;;;;;;;;;;;;;;;;5105677;28;19912;-88
2022/10/12 04:13:16;;;;;;;;;;;;;;;;;;5100509;27;19918;-87
2022/10/12 04:15:41;;;;;;;;;;;;;;;;;;5108343;27;20331;-87
2022/10/12 04:18:07;;;;;;;;;;;;;;;;;;5116260;27;19911;-87
2022/10/12 04:20:32;;;;;;;;;;;;;;;;;;5154342;27;20006;-87
2022/10/12 04:22:57;;;;;;;;;;;;;;;;;;5097399;28;19960;-88
2022/10/12 04:25:23;;;;;;;;;;;;;;;;;;5120202;27;19947;-89
2022/10/12 04:27:48;;;;;;;;;;;;;;;;;;5106402;27;19951;-87
2022/10/12 04:30:13;;;;;;;;;;;;;;;;;;5150424;27;20383;-89
2022/10/12 04:32:39;;;;;;;;;;;;;;;;;;5111548;28;20315;-89
2022/10/12 04:35:04;;;;;;;;;;;;;;;;;;5105534;27;19917;-88
2022/10/12 04:37:30;;;;;;;;;;;;;;;;;;5121458;27;20401;-90
2022/10/12 04:39:55;;;;;;;;;;;;;;;;;;5146787;27;19937;-90
2022/10/12 04:42:20;;;;;;;;;;;;;;;;;;5086506;27;19926;-89
2022/10/12 04:44:46;;;;;;;;;;;;;;;;;;5125225;27;19919;-88
2022/10/12 04:47:11;;;;;;;;;;;;;;;;;;5106429;27;19936;-85
2022/10/12 04:49:36;;;;;;;;;;;;;;;;;;5117499;27;20391;-83
2022/10/12 04:52:02;;;;;;;;;;;;;;;;;;5140842;27;20312;-87
2022/10/12 04:54:27;;;;;;;;;;;;;;;;;;5132332;27;20346;-86
2022/10/12 04:56:53;;;;;;;;;;;;;;;;;;5131523;27;19915;-86
2022/10/12 04:59:18;;;;;;;;;;;;;;;;;;5099794;28;19927;-87
2022/10/12 05:01:43;;;;;;;;;;;;;;;;;;5107433;28;19973;-87
2022/10/12 05:04:09;;;;;;;;;;;;;;;;;;5119265;27;19912;-89
2022/10/12 05:06:34;;;;;;;;;;;;;;;;;;5119797;27;20285;-88
2022/10/12 05:08:59;;;;;;;;;;;;;;;;;;5119551;27;19930;-90
2022/10/12 05:11:25;;;;;;;;;;;;;;;;;;5105945;27;19959;-89
2022/10/12 05:13:50;;;;;;;;;;;;;;;;;;5122713;27;19915;-88
2022/10/12 05:16:15;;;;;;;;;;;;;;;;;;5116651;27;19962;-89
2022/10/12 05:18:41;;;;;;;;;;;;;;;;;;5141394;27;19919;-90
2022/10/12 05:21:06;;;;;;;;;;;;;;;;;;5078402;28;20358;-91
2022/10/12 05:23:31;;;;;;;;;;;;;;;;;;5077761;28;19916;-89
2022/10/12 05:25:57;;;;;;;;;;;;;;;;;;5145501;27;20297;-91
2022/10/12 05:28:22;;;;;;;;;;;;;;;;;;5102678;27;20289;-89
2022/10/12 05:30:48;;;;;;;;;;;;;;;;;;5105316;28;19935;-90
2022/10/12 05:33:13;;;;;;;;;;;;;;;;;;5112547;28;19951;-92
2022/10/12 05:35:39;;;;;;;;;;;;;;;;;;5107302;27;19915;-89
2022/10/12 05:38:04;;;;;;;;;;;;;;;;;;5086091;27;20286;-89
2022/10/12 05:40:29;;;;;;;;;;;;;;;;;;5158276;27;19911;-88
2022/10/12 05:42:55;;;;;;;;;;;;;;;;;;5157189;27;19915;-87
2022/10/12 05:45:20;;;;;;;;;;;;;;;;;;5117155;27;19918;-86
2022/10/12 05:47:46;;;;;;;;;;;;;;;;;;5130604;27;19922;-93
2022/10/12 05:50:11;;;;;;;;;;;;;;;;;;5123018;27;19918;-93
2022/10/12 05:52:37;;;;;;;;;;;;;;;;;;5125344;28;19916;-92
2022/10/12 05:55:02;;;;;;;;;;;;;;;;;;5101514;27;19911;-89
2022/10/12 05:57:28;;;;;;;;;;;;;;;;;;5111553;28;20349;-90
2022/10/12 05:59:53;;;;;;;;;;;;;;;;;;5116883;27;19915;-89
2022/10/12 06:02:19;;;;;;;;;;;;;;;;;;5125975;27;19922;-92
2022/10/12 06:04:44;;;;;;;;;;;;;;;;;;5114058;28;20374;-92
2022/10/12 06:07:09;;;;;;;;;;;;;;;;;;5107111;28;19912;-92
2022/10/12 06:09:37;;;;;;;;;;;;;;;;;;5121260;27;19919;-92
2022/10/12 06:12:03;;;;;;;;;;;;;;;;;;5105283;27;19912;-92
2022/10/12 06:14:28;;;;;;;;;;;;;;;;;;5101461;28;20376;-91
2022/10/12 06:16:54;;;;;;;;;;;;;;;;;;5098895;27;19918;-90
2022/10/12 06:19:19;;;;;;;;;;;;;;;;;;5119987;27;19916;-93
2022/10/12 06:21:44;;;;;;;;;;;;;;;;;;5130279;27;19922;-91
2022/10/12 06:24:10;;;;;;;;;;;;;;;;;;5156547;27;20001;-89
2022/10/12 06:26:35;;;;;;;;;;;;;;;;;;5114858;28;19964;-89
2022/10/12 06:29:00;;;;;;;;;;;;;;;;;;5107304;27;19973;-92
2022/10/12 06:31:26;;;;;;;;;;;;;;;;;;5138468;27;20354;-95
2022/10/12 06:33:52;;;;;;;;;;;;;;;;;;5105457;27;19915;-90
2022/10/12 06:36:17;;;;;;;;;;;;;;;;;;5103096;27;20031;-79
2022/10/12 06:38:43;;;;;;;;;;;;;;;;;;5150894;27;20293;-80
2022/10/12 06:41:08;;;;;;;;;;;;;;;;;;5135402;27;19911;-80
2022/10/12 06:43:34;;;;;;;;;;;;;;;;;;5136545;27;20404;-94
2022/10/12 06:46:00;;;;;;;;;;;;;;;;;;5106139;28;19918;-90
2022/10/12 06:48:25;;;;;;;;;;;;;;;;;;5103208;28;19911;-93
2022/10/12 06:50:51;;;;;;;;;;;;;;;;;;5082825;28;20010;-91
2022/10/12 06:53:17;;;;;;;;;;;;;;;;;;5099832;28;20323;-93
2022/10/12 06:55:42;;;;;;;;;;;;;;;;;;5084110;28;19918;-94
2022/10/12 06:58:08;;;;;;;;;;;;;;;;;;5101583;28;20010;-92
2022/10/12 07:00:33;;;;;;;;;;;;;;;;;;5085865;28;20444;-92
2022/10/12 07:02:59;;;;;;;;;;;;;;;;;;5088979;28;19915;-93
2022/10/12 07:05:24;;;;;;;;;;;;;;;;;;5085704;28;19919;-94
2022/10/12 07:07:49;;;;;;;;;;;;;;;;;;5086955;28;20389;-91
2022/10/12 07:10:15;;;;;;;;;;;;;;;;;;5117338;28;20286;-93
2022/10/12 07:12:40;;;;;;;;;;;;;;;;;;5103751;28;19986;-92
2022/10/12 07:15:06;;;;;;;;;;;;;;;;;;5100383;28;19911;-93
2022/10/12 07:17:31;;;;;;;;;;;;;;;;;;5099412;28;19922;-93
2022/10/12 07:19:57;;;;;;;;;;;;;;;;;;5098752;28;19912;-93
2022/10/12 07:22:22;;;;;;;;;;;;;;;;;;5081614;28;20362;-91
2022/10/12 07:24:48;;;;;;;;;;;;;;;;;;5099531;28;19912;-93
2022/10/12 07:27:13;;;;;;;;;;;;;;;;;;5084251;28;19926;-93
2022/10/12 07:29:38;;;;;;;;;;;;;;;;;;5084929;28;20430;-91
2022/10/12 07:32:04;;;;;;;;;;;;;;;;;;5118624;28;19919;-92
2022/10/12 07:34:29;;;;;;;;;;;;;;;;;;5083120;28;20040;-92
2022/10/12 07:36:54;;;;;;;;;;;;;;;;;;5115976;28;19918;-91
2022/10/12 07:39:21;;;;;;;;;;;;;;;;;;5099689;28;19912;-91
2022/10/12 07:41:46;;;;;;;;;;;;;;;;;;5098299;28;20367;-92
2022/10/12 07:44:12;;;;;;;;;;;;;;;;;;5082375;28;19922;-92
2022/10/12 07:46:37;;;;;;;;;;;;;;;;;;5098740;28;20335;-94
2022/10/12 07:49:03;;;;;;;;;;;;;;;;;;5099767;28;19919;-91
2022/10/12 07:51:28;;;;;;;;;;;;;;;;;;5117825;28;19912;-92
2022/10/12 07:53:53;;;;;;;;;;;;;;;;;;5098224;28;19923;-92
2022/10/12 07:56:19;;;;;;;;;;;;;;;;;;5116655;28;20394;-91
2022/10/12 07:58:44;;;;;;;;;;;;;;;;;;5127181;28;19912;-88
2022/10/12 08:01:10;;;;;;;;;;;;;;;;;;5125932;28;19934;-88
2022/10/12 08:03:35;;;;;;;;;;;;;;;;;;5103055;28;19922;-89
2022/10/12 08:06:01;;;;;;;;;;;;;;;;;;5100975;28;20401;-89
2022/10/12 08:08:26;;;;;;;;;;;;;;;;;;5124596;28;19911;-91
2022/10/12 08:10:52;;;;;;;;;;;;;;;;;;5085215;28;19915;-92
2022/10/12 08:13:17;;;;;;;;;;;;;;;;;;5115282;28;19912;-94
2022/10/12 08:15:42;;;;;;;;;;;;;;;;;;5081661;28;19916;-93
2022/10/12 08:18:08;;;;;;;;;;;;;;;;;;5097780;28;19928;-92
2022/10/12 08:20:33;;;;;;;;;;;;;;;;;;5080585;28;20301;-93
2022/10/12 08:22:58;;;;;;;;;;;;;;;;;;5097889;28;19997;-93
2022/10/12 08:25:24;;;;;;;;;;;;;;;;;;5114309;28;19939;-91
2022/10/12 08:27:49;;;;;;;;;;;;;;;;;;5115627;28;19912;-92
2022/10/12 08:30:15;;;;;;;;;;;;;;;;;;5083058;28;19924;-92
2022/10/12 08:32:40;;;;;;;;;;;;;;;;;;5097827;28;19967;-92
2022/10/12 08:35:05;;;;;;;;;;;;;;;;;;5100869;28;19918;-91
2022/10/12 08:37:31;;;;;;;;;;;;;;;;;;5115686;28;20389;-94
2022/10/12 08:39:56;;;;;;;;;;;;;;;;;;5097525;28;20240;-92
2022/10/12 08:42:22;;;;;;;;;;;;;;;;;;5113359;28;19915;-92
2022/10/12 08:44:48;;;;;;;;;;;;;;;;;;5102481;28;19934;-93
2022/10/12 08:47:13;;;;;;;;;;;;;;;;;;5097120;28;20447;-93
2022/10/12 08:49:39;;;;;;;;;;;;;;;;;;5099418;28;20290;-90
2022/10/12 08:52:05;;;;;;;;;;;;;;;;;;5097273;28;20010;-93
2022/10/12 08:54:30;;;;;;;;;;;;;;;;;;5080523;28;19911;-91
2022/10/12 08:56:56;;;;;;;;;;;;;;;;;;5115148;28;20478;-87
2022/10/12 08:59:21;;;;;;;;;;;;;;;;;;5106504;28;19912;-89
2022/10/12 09:01:47;;;;;;;;;;;;;;;;;;5088615;28;19955;-92
2022/10/12 09:04:12;;;;;;;;;;;;;;;;;;5083646;28;19957;-92
2022/10/12 09:06:37;;;;;;;;;;;;;;;;;;5116495;28;19916;-91
2022/10/12 09:09:03;;;;;;;;;;;;;;;;;;5099675;28;19916;-92
2022/10/12 09:11:28;;;;;;;;;;;;;;;;;;5130842;27;20010;-91
2022/10/12 09:13:54;;;;;;;;;;;;;;;;;;5095965;28;19916;-92
2022/10/12 09:16:19;;;;;;;;;;;;;;;;;;5095928;28;19939;-90
2022/10/12 09:18:44;;;;;;;;;;;;;;;;;;5113240;28;19919;-92
2022/10/12 09:21:10;;;;;;;;;;;;;;;;;;5113723;28;20007;-92
2022/10/12 09:23:38;;;;;;;;;;;;;;;;;;5094147;28;21139;-92
2022/10/12 09:26:03;;;;;;;;;;;;;;;;;;5113964;28;19955;-91
2022/10/12 09:28:29;;;;;;;;;;;;;;;;;;5118075;28;19944;-90
2022/10/12 09:30:54;;;;;;;;;;;;;;;;;;5119762;28;20278;-91
2022/10/12 09:33:19;;;;;;;;;;;;;;;;;;5116411;28;19912;-91
2022/10/12 09:35:46;;;;;;;;;;;;;;;;;;5115862;28;19956;-91
2022/10/12 09:38:11;;;;;;;;;;;;;;;;;;5080504;28;19920;-92
2022/10/12 09:40:37;;;;;;;;;;;;;;;;;;5114038;28;20054;-91
2022/10/12 09:43:02;;;;;;;;;;;;;;;;;;5113993;28;19926;-92
2022/10/12 09:45:27;;;;;;;;;;;;;;;;;;5113390;28;19919;-91
2022/10/12 09:47:53;;;;;;;;;;;;;;;;;;5114481;28;19916;-92
2022/10/12 09:50:18;;;;;;;;;;;;;;;;;;5096492;28;19918;-90
2022/10/12 09:52:43;;;;;;;;;;;;;;;;;;5096025;28;19959;-91
2022/10/12 09:55:09;;;;;;;;;;;;;;;;;;5116137;28;19912;-90
2022/10/12 09:57:34;;;;;;;;;;;;;;;;;;5116830;28;19976;-90
2022/10/12 10:00:01;;;;;;;;;;;;;;;;;;5105899;28;20310;-89
2022/10/12 10:02:37;;;;;;;;;;;;;;;;;;5124367;28;19919;-88
2022/10/12 10:05:02;;;;;;;;;;;;;;;;;;5119856;28;19912;-90
2022/10/12 10:07:28;;;;;;;;;;;;;;;;;;5119855;28;20006;-89
2022/10/12 10:09:54;;;;;;;;;;;;;;;;;;5117261;28;19911;-91
2022/10/12 10:12:20;;;;;;;;;;;;;;;;;;5115930;28;19911;-89
2022/10/12 10:14:45;;;;;;;;;;;;;;;;;;5112480;28;20278;-90
2022/10/12 10:17:10;;;;;;;;;;;;;;;;;;5111985;28;19911;-90
2022/10/12 10:19:36;;;;;;;;;;;;;;;;;;5112910;28;19911;-89
2022/10/12 10:22:01;;;;;;;;;;;;;;;;;;5094518;28;20373;-89
2022/10/12 10:24:27;;;;;;;;;;;;;;;;;;5112813;28;20025;-89
2022/10/12 10:26:52;;;;;;;;;;;;;;;;;;5115718;28;19911;-89
2022/10/12 10:29:17;;;;;;;;;;;;;;;;;;5116965;28;19919;-89
2022/10/12 10:31:45;;;;;;;;;;;;;;;;;;5115650;28;20367;-89
2022/10/12 10:34:10;;;;;;;;;;;;;;;;;;5099053;28;20285;-89
2022/10/12 10:36:36;;;;;;;;;;;;;;;;;;5116703;28;19958;-88
2022/10/12 10:39:01;;;;;;;;;;;;;;;;;;5098342;28;20363;-88
2022/10/12 10:41:27;;;;;;;;;;;;;;;;;;5115175;28;19911;-88
2022/10/12 10:43:52;;;;;;;;;;;;;;;;;;5114876;28;19915;-88
2022/10/12 10:46:18;;;;;;;;;;;;;;;;;;5117569;28;20010;-89
2022/10/12 10:48:43;;;;;;;;;;;;;;;;;;5121023;28;20341;-90
2022/10/12 10:51:08;;;;;;;;;;;;;;;;;;5101372;28;19912;-88
2022/10/12 10:53:34;;;;;;;;;;;;;;;;;;5118008;28;19994;-86
2022/10/12 10:55:59;;;;;;;;;;;;;;;;;;5098026;28;20448;-87
2022/10/12 10:58:25;;;;;;;;;;;;;;;;;;5117090;28;20417;-87
2022/10/12 11:00:50;;;;;;;;;;;;;;;;;;5098327;28;19912;-89
2022/10/12 11:03:15;;;;;;;;;;;;;;;;;;5116021;28;19916;-87
2022/10/12 11:05:41;;;;;;;;;;;;;;;;;;5116658;28;20386;-88
2022/10/12 11:08:06;;;;;;;;;;;;;;;;;;5098795;28;20370;-88
2022/10/12 11:10:32;;;;;;;;;;;;;;;;;;5117612;28;19923;-87
2022/10/12 11:12:57;;;;;;;;;;;;;;;;;;5116493;28;19907;-86
2022/10/12 11:15:22;;;;;;;;;;;;;;;;;;5115965;28;20371;-88
2022/10/12 11:17:48;;;;;;;;;;;;;;;;;;5100701;28;20311;-86
2022/10/12 11:20:14;;;;;;;;;;;;;;;;;;5122288;28;19922;-89
2022/10/12 11:22:39;;;;;;;;;;;;;;;;;;5118590;28;19916;-88
2022/10/12 11:25:04;;;;;;;;;;;;;;;;;;5116620;28;20324;-88
2022/10/12 11:27:30;;;;;;;;;;;;;;;;;;5116209;28;19916;-86
2022/10/12 11:29:55;;;;;;;;;;;;;;;;;;5118037;28;20290;-87
2022/10/12 11:32:21;;;;;;;;;;;;;;;;;;5116438;28;19922;-88
2022/10/12 11:34:46;;;;;;;;;;;;;;;;;;5116972;28;19943;-88
2022/10/12 11:37:12;;;;;;;;;;;;;;;;;;5113920;28;20457;-87
2022/10/12 11:39:37;;;;;;;;;;;;;;;;;;5097356;28;20010;-88
2022/10/12 11:42:03;;;;;;;;;;;;;;;;;;5097663;28;19923;-87
2022/10/12 11:44:28;;;;;;;;;;;;;;;;;;5114451;28;20024;-87
2022/10/12 11:46:54;;;;;;;;;;;;;;;;;;5116090;28;20331;-88
2022/10/12 11:49:19;;;;;;;;;;;;;;;;;;5098447;28;19912;-87
2022/10/12 11:51:44;;;;;;;;;;;;;;;;;;5113961;28;19975;-89
2022/10/12 11:54:10;;;;;;;;;;;;;;;;;;5115377;28;19919;-88
2022/10/12 11:56:35;;;;;;;;;;;;;;;;;;5098794;28;20382;-87
2022/10/12 11:59:00;;;;;;;;;;;;;;;;;;5118753;28;19912;-86
2022/10/12 12:01:28;;;;;;;;;;;;;;;;;;5122936;28;20267;-87
2022/10/12 12:03:53;;;;;;;;;;;;;;;;;;5124549;28;19915;-86
2022/10/12 12:06:19;;;;;;;;;;;;;;;;;;5118523;28;20040;-86
2022/10/12 12:08:44;;;;;;;;;;;;;;;;;;5119635;28;19911;-87
2022/10/12 12:11:09;;;;;;;;;;;;;;;;;;5134281;27;20340;-87
2022/10/12 12:13:35;;;;;;;;;;;;;;;;;;5100353;28;19915;-87
2022/10/12 12:16:00;;;;;;;;;;;;;;;;;;5116523;28;20306;-87
2022/10/12 12:18:26;;;;;;;;;;;;;;;;;;5117103;28;19912;-90
2022/10/12 12:20:51;;;;;;;;;;;;;;;;;;5100676;28;19961;-89
2022/10/12 12:23:17;;;;;;;;;;;;;;;;;;5102770;28;20294;-89
2022/10/12 12:25:42;;;;;;;;;;;;;;;;;;5116796;28;19912;-83
2022/10/12 12:28:07;;;;;;;;;;;;;;;;;;5115440;28;19912;-83
2022/10/12 12:30:33;;;;;;;;;;;;;;;;;;5113640;28;20012;-83
2022/10/12 12:32:58;;;;;;;;;;;;;;;;;;5113611;28;20383;-82
2022/10/12 12:35:24;;;;;;;;;;;;;;;;;;5128405;27;20389;-83
2022/10/12 12:37:49;;;;;;;;;;;;;;;;;;5134195;27;19965;-83
2022/10/12 12:40:14;;;;;;;;;;;;;;;;;;5117739;27;19911;-84
2022/10/12 12:42:40;;;;;;;;;;;;;;;;;;5138543;27;19966;-78
2022/10/12 12:45:06;;;;;;;;;;;;;;;;;;5115405;27;20337;-79
2022/10/12 12:47:31;;;;;;;;;;;;;;;;;;5132816;27;20291;-80
2022/10/12 12:49:59;;;;;;;;;;;;;;;;;;5137142;27;20413;-78
2022/10/12 12:52:24;;;;;;;;;;;;;;;;;;5128994;27;20002;-80
2022/10/12 12:54:49;;;;;;;;;;;;;;;;;;5127213;27;20011;-80
2022/10/12 12:57:15;;;;;;;;;;;;;;;;;;5129258;27;19918;-79
2022/10/12 12:59:40;;;;;;;;;;;;;;;;;;5119379;27;20383;-79
2022/10/12 13:02:05;;;;;;;;;;;;;;;;;;5122100;27;19916;-79
2022/10/12 13:04:37;;;;;;;;;;;;;;;;;;5150080;27;19954;-78
2022/10/12 13:07:03;;;;;;;;;;;;;;;;;;5132028;27;20026;-78
2022/10/12 13:09:28;;;;;;;;;;;;;;;;;;5129058;27;20393;-78
2022/10/12 13:11:54;;;;;;;;;;;;;;;;;;5126576;27;20526;-78
2022/10/12 13:14:22;;;;;;;;;;;;;;;;;;5115450;27;19961;-82
2022/10/12 13:16:48;;;;;;;;;;;;;;;;;;5117770;27;19911;-79
2022/10/12 13:19:13;;;;;;;;;;;;;;;;;;5123628;27;19916;-78
2022/10/12 13:21:39;;;;;;;;;;;;;;;;;;5132185;27;19915;-80
2022/10/12 13:24:04;;;;;;;;;;;;;;;;;;5133206;27;19918;-78
2022/10/12 13:26:31;;;;;;;;;;;;;;;;;;5132303;27;20250;-77
2022/10/12 13:28:56;;;;;;;;;;;;;;;;;;5149212;27;19912;-79
2022/10/12 13:31:22;;;;;;;;;;;;;;;;;;5123066;28;19935;-79
2022/10/12 13:33:49;;;;;;;;;;;;;;;;;;5134588;27;19911;-78
2022/10/12 13:36:14;;;;;;;;;;;;;;;;;;5120250;27;20026;-78
2022/10/12 13:38:40;;;;;;;;;;;;;;;;;;5149741;27;19965;-79
2022/10/12 13:41:05;;;;;;;;;;;;;;;;;;5131380;28;20438;-79
2022/10/12 13:43:32;;;;;;;;;;;;;;;;;;5141778;27;19915;-80
2022/10/12 13:45:57;;;;;;;;;;;;;;;;;;5150424;27;19911;-79
2022/10/12 13:48:22;;;;;;;;;;;;;;;;;;5137020;27;19961;-77
2022/10/12 13:50:48;;;;;;;;;;;;;;;;;;5135771;27;20388;-78
2022/10/12 13:53:13;;;;;;;;;;;;;;;;;;5148376;27;20377;-78
2022/10/12 13:55:39;;;;;;;;;;;;;;;;;;5143229;27;19916;-77
2022/10/12 13:58:04;;;;;;;;;;;;;;;;;;5117821;28;20320;-76
2022/10/12 14:00:34;;;;;;;;;;;;;;;;;;5151039;27;19935;-75
2022/10/12 14:02:59;;;;;;;;;;;;;;;;;;5141239;27;19915;-78
2022/10/12 14:05:25;;;;;;;;;;;;;;;;;;5139698;27;20424;-79
2022/10/12 14:07:50;;;;;;;;;;;;;;;;;;5123849;22;19950;-76
2022/10/12 14:10:16;;;;;;;;;;;;;;;;;;5102183;28;19912;-75
2022/10/12 14:12:41;;;;;;;;;;;;;;;;;;5099953;27;19993;-76
2022/10/12 14:15:07;;;;;;;;;;;;;;;;;;5094275;28;20355;-75
2022/10/12 14:17:32;;;;;;;;;;;;;;;;;;5104356;28;20405;-76
2022/10/12 14:19:58;;;;;;;;;;;;;;;;;;5115358;27;20323;-75
2022/10/12 14:22:24;;;;;;;;;;;;;;;;;;5113716;28;19916;-76
2022/10/12 14:24:49;;;;;;;;;;;;;;;;;;5115300;28;20339;-75
2022/10/12 14:27:15;;;;;;;;;;;;;;;;;;5113924;28;19911;-76
2022/10/12 14:29:40;;;;;;;;;;;;;;;;;;5114791;27;20648;-75
2022/10/12 14:32:05;;;;;;;;;;;;;;;;;;5096534;28;20048;-75
2022/10/12 14:34:31;;;;;;;;;;;;;;;;;;5114397;28;20406;-76
2022/10/12 14:36:56;;;;;;;;;;;;;;;;;;5113646;28;19916;-76
2022/10/12 14:39:21;;;;;;;;;;;;;;;;;;5114899;28;19912;-76
2022/10/12 14:41:49;;;;;;;;;;;;;;;;;;5114953;28;19922;-76
2022/10/12 14:44:16;;;;;;;;;;;;;;;;;;5114013;28;19911;-76
2022/10/12 14:46:41;;;;;;;;;;;;;;;;;;5113351;28;19958;-76
2022/10/12 14:49:07;;;;;;;;;;;;;;;;;;5114454;28;19958;-76
2022/10/12 14:51:32;;;;;;;;;;;;;;;;;;5114362;27;19908;-77
2022/10/12 14:53:58;;;;;;;;;;;;;;;;;;5113049;28;20406;-76
2022/10/12 14:56:23;;;;;;;;;;;;;;;;;;5113425;28;20275;-76
2022/10/12 14:58:49;;;;;;;;;;;;;;;;;;5113804;28;19922;-74
2022/10/12 15:01:14;;;;;;;;;;;;;;;;;;5115011;28;20371;-75
2022/10/12 15:03:39;;;;;;;;;;;;;;;;;;5110537;28;20372;-76
2022/10/12 15:06:05;;;;;;;;;;;;;;;;;;5111821;28;19912;-76
2022/10/12 15:08:30;;;;;;;;;;;;;;;;;;5103384;28;20362;-75
2022/10/12 15:10:56;;;;;;;;;;;;;;;;;;5111335;27;20346;-74
2022/10/12 15:13:21;;;;;;;;;;;;;;;;;;5109216;28;20378;-75
2022/10/12 15:15:47;;;;;;;;;;;;;;;;;;5105998;28;20302;-74
2022/10/12 15:18:12;;;;;;;;;;;;;;;;;;5114074;28;19955;-75
2022/10/12 15:20:37;;;;;;;;;;;;;;;;;;5105261;28;20341;-74
2022/10/12 15:23:03;;;;;;;;;;;;;;;;;;5113630;28;19919;-74
2022/10/12 15:25:28;;;;;;;;;;;;;;;;;;5113857;28;19919;-75
2022/10/12 15:27:54;;;;;;;;;;;;;;;;;;5113912;28;20416;-77
2022/10/12 15:30:19;;;;;;;;;;;;;;;;;;5114765;28;20421;-76
2022/10/12 15:32:44;;;;;;;;;;;;;;;;;;5107687;28;19912;-75
2022/10/12 15:35:10;;;;;;;;;;;;;;;;;;5114036;28;19967;-75
2022/10/12 15:37:35;;;;;;;;;;;;;;;;;;5114073;28;20349;-76
2022/10/12 15:40:00;;;;;;;;;;;;;;;;;;5112592;28;19946;-76
2022/10/12 15:42:26;;;;;;;;;;;;;;;;;;5112862;28;19922;-74
2022/10/12 15:44:52;;;;;;;;;;;;;;;;;;5112491;28;20468;-75
2022/10/12 15:47:17;;;;;;;;;;;;;;;;;;5112166;28;20298;-75
2022/10/12 15:49:42;;;;;;;;;;;;;;;;;;5113568;28;20029;-76
2022/10/12 15:52:08;;;;;;;;;;;;;;;;;;5112547;28;19912;-76
2022/10/12 15:54:33;;;;;;;;;;;;;;;;;;5113316;28;19912;-76
2022/10/12 15:56:58;;;;;;;;;;;;;;;;;;5113350;28;20006;-75
2022/10/12 15:59:24;;;;;;;;;;;;;;;;;;5094294;28;19981;-76
2022/10/12 16:01:49;;;;;;;;;;;;;;;;;;5109464;28;20032;-75
2022/10/12 16:04:15;;;;;;;;;;;;;;;;;;5112924;28;20286;-74
2022/10/12 16:06:40;;;;;;;;;;;;;;;;;;5111454;28;19919;-75
2022/10/12 16:09:05;;;;;;;;;;;;;;;;;;5111809;28;20353;-75
2022/10/12 16:11:31;;;;;;;;;;;;;;;;;;5112944;28;19912;-74
2022/10/12 16:13:56;;;;;;;;;;;;;;;;;;5112826;28;19915;-74
2022/10/12 16:16:22;;;;;;;;;;;;;;;;;;5111696;28;20014;-87
2022/10/12 16:18:47;;;;;;;;;;;;;;;;;;5116156;28;19919;-86
2022/10/12 16:21:12;;;;;;;;;;;;;;;;;;5094763;28;19913;-89
2022/10/12 16:23:38;;;;;;;;;;;;;;;;;;5094956;28;20331;-87
2022/10/12 16:26:03;;;;;;;;;;;;;;;;;;5113072;28;19956;-87
2022/10/12 16:28:29;;;;;;;;;;;;;;;;;;5097616;28;20065;-86
2022/10/12 16:30:54;;;;;;;;;;;;;;;;;;5094288;28;19920;-88
2022/10/12 16:33:20;;;;;;;;;;;;;;;;;;5115519;28;19920;-85